Fort Stanwix National Monume, New York
Current Conditions -  °F | °C
As of 8:53 AM on Wednesday 28 Jan 2015 (Local Time) from KRME Reporting Station
Clear Clear  
Wind Chill: -9°   Ceiling: Unl
Heat Index:   Visibility: 10mi
Dew Point: -5°   Wind: 5mph
Humidity: 75%   Direction: 320°NW
Pressure: 30.21"   Gusts: NA
Location:  43.2466°N, 75.4624°W
Report Text: KRME 281353Z 32004KT 10SM CLR M17/M21 A3021 RMK AO2 SLP241 T11721206
Loading
Personal Weather Stations






























Interactive Weather Map New forecast layout! Learn more

10-Day Weather Forecast

Advertisements
Track Severe Weather on mobile